Terminal Aerodrome Forecast
Issued by NWS Sterling, VA

Current Version | Previous Version | Graphics & Text | Print | Product List | Glossary On
Versions: 1 2 3 4 5 6 7 8 9 10 11 12 13 14 15 16 17
614
FTUS41 KLWX 202320
TAFMRB
TAF
KMRB 202320Z 2100/2124 32006KT P6SM SCT250
     FM210800 00000KT 4SM BR FEW100
     FM210900 VRB03KT 2SM BR SCT090
     FM211200 VRB03KT P6SM BKN035=

USA.gov is the U.S. government's official web portal to all federal, state and local government web resources and services.